createdAt,value
2017-12-16T00:01:43.375Z,99208.98
2017-12-16T00:04:15.856Z,99214.44
2017-12-16T00:06:48.359Z,99216.52
2017-12-16T00:09:20.843Z,99216.09
2017-12-16T00:11:53.339Z,99211.07
2017-12-16T00:14:25.912Z,99210.64
2017-12-16T00:16:58.419Z,99215.66
2017-12-16T00:19:30.909Z,99211.50
2017-12-16T00:22:03.431Z,99208.13
2017-12-16T00:24:35.920Z,99211.08
2017-12-16T00:27:08.423Z,99215.68
2017-12-16T00:29:40.909Z,99208.14
2017-12-16T00:32:13.416Z,99206.47
2017-12-16T00:34:45.891Z,99211.90
2017-12-16T00:37:18.395Z,99212.32
2017-12-16T00:39:50.888Z,99207.72
2017-12-16T00:42:23.385Z,99213.14
2017-12-16T00:44:55.855Z,99208.95
2017-12-16T00:47:28.360Z,99213.56
2017-12-16T00:50:00.855Z,99218.60
2017-12-16T00:52:33.365Z,99218.60
2017-12-16T00:55:05.853Z,99224.88
2017-12-16T00:57:38.372Z,99222.38
2017-12-16T01:00:10.870Z,99225.30
2017-12-16T01:02:43.368Z,99229.91
2017-12-16T01:05:15.854Z,99222.78
2017-12-16T01:07:48.356Z,99224.47
2017-12-16T01:10:20.868Z,99228.22
2017-12-16T01:12:53.372Z,99233.26
2017-12-16T01:15:25.872Z,99242.02
2017-12-16T01:17:58.381Z,99246.63
2017-12-16T01:20:30.859Z,99244.53
2017-12-16T01:23:03.356Z,99238.27
2017-12-16T01:25:35.827Z,99249.14
2017-12-16T01:28:08.326Z,99249.14
2017-12-16T01:30:41.817Z,99253.34
2017-12-16T01:33:14.307Z,99255.02
2017-12-16T01:35:58.600Z,99261.30
2017-12-16T01:38:37.617Z,99260.03
2017-12-16T01:41:10.095Z,99265.88
2017-12-16T01:43:42.592Z,99262.95
2017-12-16T01:46:15.076Z,99268.41
2017-12-16T01:48:47.574Z,99265.88
2017-12-16T01:51:20.056Z,99268.41
2017-12-16T01:53:52.560Z,99260.86
2017-12-16T01:56:25.087Z,99264.23
2017-12-16T01:58:57.586Z,99260.03
2017-12-16T02:01:30.067Z,99255.85
2017-12-16T02:04:02.583Z,99270.50
2017-12-16T02:06:35.064Z,99268.83
2017-12-16T02:09:09.750Z,99272.56
2017-12-16T02:11:42.282Z,99274.23
2017-12-16T02:14:14.784Z,99276.30
2017-12-16T02:16:47.276Z,99282.97
2017-12-16T02:19:19.788Z,99289.23
2017-12-16T02:21:52.275Z,99290.06
2017-12-16T02:24:24.788Z,99290.47
2017-12-16T02:26:57.371Z,99290.05
2017-12-16T02:29:29.885Z,99279.18
2017-12-16T02:32:02.370Z,99279.16
2017-12-16T02:34:34.894Z,99279.58
2017-12-16T02:37:10.231Z,99285.00
2017-12-16T02:39:42.732Z,99287.52
2017-12-16T02:42:15.238Z,99282.53
2017-12-16T02:44:47.746Z,99277.95
2017-12-16T02:47:20.319Z,99289.66
2017-12-16T02:49:52.831Z,99288.83
2017-12-16T02:52:25.330Z,99289.25
2017-12-16T02:54:57.844Z,99283.79
2017-12-16T02:57:30.334Z,99278.36
2017-12-16T03:00:02.860Z,99287.14
2017-12-16T03:02:35.358Z,99285.50
2017-12-16T03:05:10.614Z,99284.22
2017-12-16T03:07:43.192Z,99289.66
2017-12-16T03:10:15.706Z,99289.27
2017-12-16T03:12:48.191Z,99282.57
2017-12-16T03:15:20.711Z,99283.42
2017-12-16T03:17:53.197Z,99292.22
2017-12-16T03:20:25.743Z,99285.93
2017-12-16T03:22:58.223Z,99289.70
2017-12-16T03:25:30.738Z,99280.95
2017-12-16T03:28:03.225Z,99286.36
2017-12-16T03:30:37.466Z,99293.89
2017-12-16T03:33:09.952Z,99292.65
2017-12-16T03:35:42.471Z,99294.75
2017-12-16T03:38:14.951Z,99298.09
2017-12-16T03:40:47.466Z,99300.19
2017-12-16T03:43:19.963Z,99294.34
2017-12-16T03:45:52.478Z,99301.45
2017-12-16T03:48:24.973Z,99298.54
2017-12-16T03:50:57.483Z,99307.72
2017-12-16T03:53:29.965Z,99303.95
2017-12-16T03:56:02.468Z,99307.74
2017-12-16T03:58:34.950Z,99305.23
2017-12-16T04:01:10.342Z,99306.91
2017-12-16T04:03:42.832Z,99314.42
2017-12-16T04:06:15.338Z,99309.41
2017-12-16T04:08:47.809Z,99312.77
2017-12-16T04:11:20.324Z,99314.03
2017-12-16T04:13:52.816Z,99318.62
2017-12-16T04:16:25.345Z,99318.64
2017-12-16T04:18:57.836Z,99314.45
2017-12-16T04:21:30.347Z,99313.20
2017-12-16T04:24:02.835Z,99314.05
2017-12-16T04:26:35.336Z,99316.96
2017-12-16T04:29:10.762Z,99322.81
2017-12-16T04:31:43.281Z,99324.07
2017-12-16T04:34:15.762Z,99322.37
2017-12-16T04:36:48.271Z,99328.25
2017-12-16T04:39:20.756Z,99331.19
2017-12-16T04:41:53.280Z,99323.66
2017-12-16T04:44:25.776Z,99326.98
2017-12-16T04:46:58.291Z,99324.08
2017-12-16T04:49:30.776Z,99325.32
2017-12-16T04:52:03.299Z,99328.25
2017-12-16T04:54:37.512Z,99330.78
2017-12-16T04:57:10.012Z,99335.38
2017-12-16T04:59:42.503Z,99344.60
2017-12-16T05:02:15.059Z,99345.42
2017-12-16T05:04:47.519Z,99347.11
2017-12-16T05:07:20.025Z,99348.36
2017-12-16T05:09:52.506Z,99347.52
2017-12-16T05:12:25.017Z,99354.64
2017-12-16T05:14:57.493Z,99358.81
2017-12-16T05:17:29.991Z,99348.35
2017-12-16T05:20:02.521Z,99357.57
2017-12-16T05:25:13.857Z,99363.44
2017-12-16T05:27:46.350Z,99369.31
2017-12-16T05:30:18.887Z,99376.40
2017-12-16T05:32:51.362Z,99366.80
2017-12-16T05:35:23.866Z,99374.73
2017-12-16T05:37:56.385Z,99371.38
2017-12-16T05:40:28.859Z,99371.81
2017-12-16T05:43:01.380Z,99374.31
2017-12-16T05:45:33.865Z,99376.82
2017-12-16T05:48:08.525Z,99375.58
2017-12-16T05:50:41.013Z,99382.29
2017-12-16T05:53:13.506Z,99380.20
2017-12-16T05:55:46.007Z,99387.73
2017-12-16T05:58:18.503Z,99388.98
2017-12-16T06:00:51.961Z,99389.39
2017-12-16T06:03:24.476Z,99386.05
2017-12-16T06:05:56.953Z,99391.92
2017-12-16T06:08:29.461Z,99391.50
2017-12-16T06:11:01.981Z,99391.92
2017-12-16T06:13:34.488Z,99391.07
2017-12-16T06:16:06.975Z,99392.77
2017-12-16T06:18:39.488Z,99401.55
2017-12-16T06:21:11.966Z,99396.94
2017-12-16T06:23:44.495Z,99398.61
2017-12-16T06:26:16.980Z,99394.42
2017-12-16T06:28:49.483Z,99397.77
2017-12-16T06:31:22.064Z,99397.78
2017-12-16T06:33:54.589Z,99402.40
2017-12-16T06:36:27.073Z,99405.33
2017-12-16T06:38:59.576Z,99408.25
2017-12-16T06:41:32.054Z,99407.42
2017-12-16T06:44:04.555Z,99403.64
2017-12-16T06:46:37.043Z,99412.44
2017-12-16T06:49:09.541Z,99418.75
2017-12-16T06:51:42.007Z,99421.66
2017-12-16T06:54:14.516Z,99419.56
2017-12-16T06:56:46.999Z,99423.77
2017-12-16T06:59:19.503Z,99427.95
2017-12-16T07:01:51.996Z,99425.42
2017-12-16T07:04:24.496Z,99428.80
2017-12-16T07:06:56.982Z,99425.44
2017-12-16T07:09:29.474Z,99430.05
2017-12-16T07:12:01.967Z,99435.07
2017-12-16T07:14:34.483Z,99435.08
2017-12-16T07:17:07.011Z,99441.38
2017-12-16T07:19:39.613Z,99448.47
2017-12-16T07:22:12.111Z,99448.89
2017-12-16T07:24:44.631Z,99455.59
2017-12-16T07:27:17.111Z,99453.49
2017-12-16T07:29:49.684Z,99461.05
2017-12-16T07:32:22.161Z,99462.73
2017-12-16T07:34:54.663Z,99463.98
2017-12-16T07:37:27.151Z,99466.91
2017-12-16T07:39:59.658Z,99461.89
2017-12-16T07:42:32.154Z,99474.45
2017-12-16T07:45:04.651Z,99473.22
2017-12-16T07:47:37.130Z,99482.02
2017-12-16T07:50:09.622Z,99477.81
2017-12-16T07:52:42.109Z,99477.40
2017-12-16T07:55:14.610Z,99476.98
2017-12-16T07:57:47.089Z,99481.59
2017-12-16T08:00:19.598Z,99487.88
2017-12-16T08:02:52.089Z,99496.25
2017-12-16T08:05:24.588Z,99497.95
2017-12-16T08:07:57.077Z,99500.47
2017-12-16T08:10:29.580Z,99505.48
2017-12-16T08:13:02.059Z,99513.45
2017-12-16T08:15:34.576Z,99510.52
2017-12-16T08:18:07.089Z,99521.84
2017-12-16T08:20:39.584Z,99524.77
2017-12-16T08:23:12.078Z,99532.73
2017-12-16T08:25:44.580Z,99536.49
2017-12-16T08:28:17.050Z,99528.98
2017-12-16T08:30:49.563Z,99529.39
2017-12-16T08:33:22.043Z,99523.12
2017-12-16T08:35:54.555Z,99531.48
2017-12-16T08:38:27.044Z,99536.95
2017-12-16T08:40:59.562Z,99540.29
2017-12-16T08:43:32.047Z,99535.70
2017-12-16T08:46:04.551Z,99549.12
2017-12-16T08:48:37.071Z,99547.44
2017-12-16T08:51:09.594Z,99548.67
2017-12-16T08:53:42.071Z,99557.91
2017-12-16T08:56:14.570Z,99560.43
2017-12-16T08:58:47.050Z,99569.22
2017-12-16T09:01:19.567Z,99569.65
2017-12-16T09:03:52.044Z,99562.94
2017-12-16T09:06:24.548Z,99568.38
2017-12-16T09:08:57.061Z,99575.08
2017-12-16T09:11:29.568Z,99588.94
2017-12-16T09:14:02.045Z,99590.59
2017-12-16T09:16:34.548Z,99585.56
2017-12-16T09:19:09.572Z,99588.91
2017-12-16T09:21:42.065Z,99589.33
2017-12-16T09:24:14.555Z,99594.80
2017-12-16T09:26:47.065Z,99606.91
2017-12-16T09:29:19.544Z,99609.88
2017-12-16T09:31:52.046Z,99608.59
2017-12-16T09:34:24.534Z,99615.33
2017-12-16T09:36:57.038Z,99609.47
2017-12-16T09:39:29.517Z,99615.36
2017-12-16T09:42:02.018Z,99613.69
2017-12-16T09:44:34.497Z,99614.52
2017-12-16T09:47:09.378Z,99615.80
2017-12-16T09:49:41.863Z,99617.06
2017-12-16T09:52:14.441Z,99622.94
2017-12-16T09:54:46.972Z,99625.44
2017-12-16T09:57:19.486Z,99632.59
2017-12-16T09:59:51.976Z,99637.61
2017-12-16T10:02:24.548Z,99635.10
2017-12-16T10:04:57.040Z,99635.50
2017-12-16T10:07:29.550Z,99635.94
2017-12-16T10:10:02.026Z,99646.00
2017-12-16T10:12:34.538Z,99644.75
2017-12-16T10:15:09.416Z,99640.53
2017-12-16T10:17:41.924Z,99639.72
2017-12-16T10:20:14.413Z,99638.88
2017-12-16T10:22:46.917Z,99645.16
2017-12-16T10:25:19.428Z,99643.91
2017-12-16T10:27:51.935Z,99643.47
2017-12-16T10:30:24.415Z,99651.89
2017-12-16T10:32:56.925Z,99653.55
2017-12-16T10:35:29.402Z,99649.38
2017-12-16T10:38:01.925Z,99647.67
2017-12-16T10:40:34.408Z,99649.37
2017-12-16T10:43:09.280Z,99648.53
2017-12-16T10:45:41.754Z,99650.19
2017-12-16T10:48:14.262Z,99650.20
2017-12-16T10:50:46.752Z,99646.44
2017-12-16T10:53:19.243Z,99652.30
2017-12-16T10:55:51.718Z,99656.06
2017-12-16T10:58:24.208Z,99656.07
2017-12-16T11:00:56.696Z,99658.60
2017-12-16T11:03:29.198Z,99657.74
2017-12-16T11:06:01.671Z,99660.67
2017-12-16T11:08:34.181Z,99667.00
2017-12-16T11:11:06.670Z,99671.17
2017-12-16T11:13:39.173Z,99677.06
2017-12-16T11:16:11.647Z,99669.92
2017-12-16T11:18:44.206Z,99674.13
2017-12-16T11:21:16.684Z,99673.27
2017-12-16T11:23:49.232Z,99675.80
2017-12-16T11:26:21.720Z,99679.16
2017-12-16T11:28:54.241Z,99671.59
2017-12-16T11:31:26.716Z,99675.80
2017-12-16T11:33:59.212Z,99677.48
2017-12-16T11:36:31.743Z,99686.70
2017-12-16T11:39:04.254Z,99690.08
2017-12-16T11:41:38.393Z,99693.44
2017-12-16T11:44:10.916Z,99693.83
2017-12-16T11:46:43.443Z,99697.20
2017-12-16T11:49:15.945Z,99696.78
2017-12-16T11:51:48.415Z,99698.47
2017-12-16T11:54:20.917Z,99698.44
2017-12-16T11:56:53.389Z,99706.42
2017-12-16T11:59:25.892Z,99705.59
2017-12-16T12:01:58.372Z,99707.27
2017-12-16T12:04:30.889Z,99708.53
2017-12-16T12:07:03.366Z,99719.45
2017-12-16T12:09:35.870Z,99713.58
2017-12-16T12:12:11.022Z,99718.61
2017-12-16T12:14:43.518Z,99716.10
2017-12-16T12:17:16.368Z,99725.33
2017-12-16T12:19:48.873Z,99728.69
2017-12-16T12:22:21.349Z,99727.85
2017-12-16T12:24:53.858Z,99733.31
2017-12-16T12:27:26.336Z,99728.69
2017-12-16T12:29:58.843Z,99735.42
2017-12-16T12:32:31.374Z,99730.37
2017-12-16T12:35:03.841Z,99727.44
2017-12-16T12:37:36.628Z,99731.64
2017-12-16T12:40:09.141Z,99733.73
2017-12-16T12:42:41.608Z,99735.85
2017-12-16T12:45:14.191Z,99730.39
2017-12-16T12:47:46.667Z,99737.51
2017-12-16T12:50:19.168Z,99736.25
2017-12-16T12:52:51.645Z,99738.38
2017-12-16T12:55:24.156Z,99746.74
2017-12-16T12:57:56.637Z,99748.43
2017-12-16T13:00:29.132Z,99752.22
2017-12-16T13:03:01.608Z,99755.59
2017-12-16T13:05:34.119Z,99754.31
2017-12-16T13:08:08.589Z,99751.81
2017-12-16T13:10:41.290Z,99750.95
2017-12-16T13:13:13.767Z,99760.62
2017-12-16T13:15:46.272Z,99755.98
2017-12-16T13:18:18.763Z,99762.28
2017-12-16T13:20:51.277Z,99768.16
2017-12-16T13:23:23.751Z,99766.09
2017-12-16T13:25:56.265Z,99771.53
2017-12-16T13:28:28.747Z,99777.41
2017-12-16T13:31:01.249Z,99777.83
2017-12-16T13:33:33.742Z,99776.57
2017-12-16T13:36:06.833Z,99777.39
2017-12-16T13:38:39.302Z,99782.88
2017-12-16T13:41:11.807Z,99783.73
2017-12-16T13:43:44.271Z,99780.34
2017-12-16T13:46:16.768Z,99782.45
2017-12-16T13:48:49.272Z,99789.58
2017-12-16T13:51:21.801Z,99799.23
2017-12-16T13:53:54.271Z,99801.34
2017-12-16T13:56:26.792Z,99796.73
2017-12-16T13:58:59.254Z,99801.78
2017-12-16T14:01:31.742Z,99807.66
2017-12-16T14:04:04.211Z,99804.30
2017-12-16T14:06:36.761Z,99806.80
2017-12-16T14:09:09.242Z,99810.59
2017-12-16T14:11:41.739Z,99810.19
2017-12-16T14:14:14.223Z,99807.66
2017-12-16T14:16:47.572Z,99810.17
2017-12-16T14:19:20.055Z,99819.84
2017-12-16T14:21:52.547Z,99814.38
2017-12-16T14:24:25.023Z,99820.27
2017-12-16T14:26:57.527Z,99828.22
2017-12-16T14:29:30.005Z,99835.36
2017-12-16T14:32:02.501Z,99831.56
2017-12-16T14:34:34.977Z,99838.30
2017-12-16T14:37:07.467Z,99848.37
2017-12-16T14:39:39.943Z,99846.27
2017-12-16T14:42:12.438Z,99851.29
2017-12-16T14:44:45.024Z,99851.70
2017-12-16T14:47:17.514Z,99865.98
2017-12-16T14:49:49.987Z,99861.76
2017-12-16T14:52:22.526Z,99874.77
2017-12-16T14:54:55.091Z,99884.00
2017-12-16T14:57:27.604Z,99881.91
2017-12-16T15:00:00.100Z,99888.19
2017-12-16T15:02:32.586Z,99888.20
2017-12-16T15:05:05.407Z,99881.02
2017-12-16T15:07:39.119Z,99892.74
2017-12-16T15:10:11.977Z,99892.30
2017-12-16T15:12:44.853Z,99892.26
2017-12-16T15:15:18.111Z,99898.96
2017-12-16T15:17:50.619Z,99900.59
2017-12-16T15:20:23.155Z,99907.31
2017-12-16T15:22:55.656Z,99911.49
2017-12-16T15:25:28.131Z,99908.95
2017-12-16T15:28:00.630Z,99912.72
2017-12-16T15:30:33.106Z,99911.03
2017-12-16T15:33:05.609Z,99913.09
2017-12-16T15:35:40.835Z,99917.67
2017-12-16T15:38:13.375Z,99921.47
2017-12-16T15:40:45.840Z,99921.88
2017-12-16T15:43:18.741Z,99924.41
2017-12-16T15:45:51.294Z,99930.25
2017-12-16T15:48:23.793Z,99935.30
2017-12-16T15:50:56.265Z,99938.30
2017-12-16T15:53:30.615Z,99933.70
2017-12-16T15:56:03.107Z,99945.04
2017-12-16T15:58:35.600Z,99937.48
2017-12-16T16:01:10.814Z,99937.91
2017-12-16T16:03:43.319Z,99943.78
2017-12-16T16:06:15.800Z,99948.40
2017-12-16T16:08:48.296Z,99954.69
2017-12-16T16:11:20.773Z,99961.38
2017-12-16T16:13:53.295Z,99965.98
2017-12-16T16:16:25.771Z,99957.16
2017-12-16T16:18:58.265Z,99966.86
2017-12-16T16:21:30.735Z,99972.33
2017-12-16T16:24:03.219Z,99974.00
2017-12-16T16:26:35.699Z,99976.95
2017-12-16T16:29:11.985Z,99981.11
2017-12-16T16:31:44.463Z,99984.05
2017-12-16T16:34:16.966Z,99987.41
2017-12-16T16:36:49.426Z,99991.16
2017-12-16T16:39:21.930Z,99986.94
2017-12-16T16:41:54.392Z,99995.33
2017-12-16T16:44:26.897Z,99997.03
2017-12-16T16:46:59.382Z,100002.95
2017-12-16T16:49:31.888Z,100000.44
2017-12-16T16:52:04.370Z,100003.39
2017-12-16T16:54:38.929Z,100006.77
2017-12-16T16:57:11.419Z,100002.98
2017-12-16T16:59:43.948Z,100005.91
2017-12-16T17:02:16.447Z,100002.97
2017-12-16T17:04:48.952Z,100004.67
2017-12-16T17:07:21.439Z,100013.09
2017-12-16T17:09:53.951Z,100023.16
2017-12-16T17:12:27.509Z,100021.51
2017-12-16T17:15:00.005Z,100025.28
2017-12-16T17:17:32.484Z,100021.48
2017-12-16T17:20:05.009Z,100027.75
2017-12-16T17:22:37.531Z,100032.37
2017-12-16T17:25:10.024Z,100031.52
2017-12-16T17:27:42.557Z,100030.27
2017-12-16T17:30:15.215Z,100037.82
2017-12-16T17:32:47.690Z,100037.40
2017-12-16T17:35:20.198Z,100036.14
2017-12-16T17:37:52.674Z,100043.72
2017-12-16T17:40:25.171Z,100054.23
2017-12-16T17:42:57.647Z,100055.91
2017-12-16T17:45:30.164Z,100052.16
2017-12-16T17:48:02.656Z,100062.66
2017-12-16T17:50:35.159Z,100064.75
2017-12-16T17:53:09.094Z,100073.14
2017-12-16T17:55:41.627Z,100070.63
2017-12-16T17:58:14.112Z,100080.25
2017-12-16T18:00:46.609Z,100076.84
2017-12-16T18:03:19.084Z,100071.75
2017-12-16T18:05:51.649Z,100071.30
2017-12-16T18:08:24.120Z,100075.88
2017-12-16T18:10:56.643Z,100064.11
2017-12-16T18:13:29.124Z,100071.56
2017-12-16T18:16:01.628Z,100076.98
2017-12-16T18:18:34.220Z,100084.95
2017-12-16T18:21:08.839Z,100084.50
2017-12-16T18:23:41.316Z,100085.34
2017-12-16T18:26:14.056Z,100085.77
2017-12-16T18:28:46.582Z,100097.08
2017-12-16T18:31:19.220Z,100103.83
2017-12-16T18:33:51.721Z,100108.83
2017-12-16T18:36:24.313Z,100104.21
2017-12-16T18:38:56.828Z,100107.98
2017-12-16T18:41:29.321Z,100107.59
2017-12-16T18:44:01.795Z,100114.69
2017-12-16T18:46:34.317Z,100111.37
2017-12-16T18:49:08.973Z,100115.98
2017-12-16T18:51:41.479Z,100121.02
2017-12-16T18:54:13.957Z,100119.30
2017-12-16T18:56:46.465Z,100124.75
2017-12-16T18:59:18.940Z,100128.08
2017-12-16T19:01:51.432Z,100124.72
2017-12-16T19:04:23.904Z,100129.75
2017-12-16T19:06:56.399Z,100130.17
2017-12-16T19:09:28.874Z,100144.77
2017-12-16T19:12:01.621Z,100141.84
2017-12-16T19:14:34.110Z,100141.42
2017-12-16T19:17:08.748Z,100139.70
2017-12-16T19:19:41.227Z,100142.64
2017-12-16T19:22:13.746Z,100149.77
2017-12-16T19:24:46.226Z,100151.02
2017-12-16T19:27:18.722Z,100151.02
2017-12-16T19:29:51.196Z,100158.57
2017-12-16T19:32:23.718Z,100153.13
2017-12-16T19:34:56.204Z,100152.63
2017-12-16T19:37:28.707Z,100159.70
2017-12-16T19:40:01.197Z,100163.86
2017-12-16T19:42:33.694Z,100167.20
2017-12-16T19:45:09.911Z,100168.84
2017-12-16T19:47:42.452Z,100173.50
2017-12-16T19:50:14.967Z,100172.70
2017-12-16T19:52:47.463Z,100174.80
2017-12-16T19:55:19.939Z,100173.55
2017-12-16T19:57:52.437Z,100178.19
2017-12-16T20:00:24.999Z,100179.87
2017-12-16T20:02:57.519Z,100179.87
2017-12-16T20:05:30.048Z,100184.89
2017-12-16T20:08:02.573Z,100196.68
2017-12-16T20:10:36.004Z,100190.77
2017-12-16T20:13:10.066Z,100189.47
2017-12-16T20:15:42.549Z,100197.84
2017-12-16T20:18:15.052Z,100194.88
2017-12-16T20:20:47.523Z,100203.30
2017-12-16T20:23:20.891Z,100201.24
2017-12-16T20:25:53.373Z,100207.11
2017-12-16T20:28:25.879Z,100208.80
2017-12-16T20:30:58.402Z,100211.77
2017-12-16T20:33:30.970Z,100214.32
2017-12-16T20:36:03.481Z,100213.48
2017-12-16T20:38:35.983Z,100211.81
2017-12-16T20:41:10.616Z,100209.34
2017-12-16T20:43:43.110Z,100219.39
2017-12-16T20:46:15.584Z,100220.20
2017-12-16T20:48:48.110Z,100223.97
2017-12-16T20:51:20.613Z,100227.28
2017-12-16T20:53:53.133Z,100228.58
2017-12-16T20:56:25.617Z,100225.22
2017-12-16T20:58:58.111Z,100228.13
2017-12-16T21:01:30.584Z,100226.86
2017-12-16T21:04:03.082Z,100226.44
2017-12-16T21:06:35.584Z,100230.17
2017-12-16T21:09:08.117Z,100231.38
2017-12-16T21:11:40.597Z,100228.40
2017-12-16T21:14:13.094Z,100239.67
2017-12-16T21:16:45.576Z,100238.74
2017-12-16T21:19:18.081Z,100245.81
2017-12-16T21:21:50.568Z,100252.05
2017-12-16T21:24:23.081Z,100256.20
2017-12-16T21:26:55.562Z,100259.17
2017-12-16T21:29:28.074Z,100262.94
2017-12-16T21:32:00.563Z,100263.78
2017-12-16T21:34:33.085Z,100261.69
2017-12-16T21:37:05.583Z,100269.28
2017-12-16T21:39:40.495Z,100266.81
2017-12-16T21:42:12.984Z,100269.70
2017-12-16T21:44:45.500Z,100280.59
2017-12-16T21:50:21.257Z,100288.56
2017-12-16T21:52:53.760Z,100293.59
2017-12-16T21:55:26.278Z,100297.77
2017-12-16T21:57:58.759Z,100291.91
2017-12-16T22:00:31.264Z,100294.89
2017-12-16T22:03:03.756Z,100299.92
2017-12-16T22:05:36.263Z,100296.11
2017-12-16T22:08:08.755Z,100298.14
2017-12-16T22:10:41.548Z,100301.17
2017-12-16T22:13:14.036Z,100304.53
2017-12-16T22:15:46.547Z,100307.00
2017-12-16T22:18:19.060Z,100309.19
2017-12-16T22:20:51.567Z,100313.34
2017-12-16T22:23:24.065Z,100309.62
2017-12-16T22:25:56.571Z,100311.33
2017-12-16T22:28:29.127Z,100311.71
2017-12-16T22:31:01.658Z,100315.95
2017-12-16T22:33:34.197Z,100320.98
2017-12-16T22:36:06.761Z,100318.00
2017-12-16T22:38:39.246Z,100320.05
2017-12-16T22:41:11.756Z,100323.86
2017-12-16T22:43:44.289Z,100325.96
2017-12-16T22:46:16.874Z,100321.82
2017-12-16T22:48:49.386Z,100319.20
2017-12-16T22:51:21.886Z,100328.47
2017-12-16T22:53:54.373Z,100315.48
2017-12-16T22:56:26.872Z,100326.80
2017-12-16T22:58:59.366Z,100322.24
2017-12-16T23:01:31.905Z,100332.25
2017-12-16T23:04:04.389Z,100335.17
2017-12-16T23:06:36.972Z,100338.52
2017-12-16T23:09:09.476Z,100343.14
2017-12-16T23:11:42.037Z,100348.17
2017-12-16T23:14:14.523Z,100350.27
2017-12-16T23:16:47.035Z,100354.09
2017-12-16T23:19:19.514Z,100351.98
2017-12-16T23:21:52.040Z,100338.54
2017-12-16T23:24:24.534Z,100344.30
2017-12-16T23:26:57.036Z,100346.45
2017-12-16T23:29:29.521Z,100346.91
2017-12-16T23:32:02.060Z,100333.08
2017-12-16T23:34:34.588Z,100343.03
2017-12-16T23:37:07.140Z,100349.64
2017-12-16T23:39:39.631Z,100361.35
2017-12-16T23:42:12.137Z,100365.97
2017-12-16T23:44:44.610Z,100363.86
2017-12-16T23:47:17.105Z,100372.67
2017-12-16T23:49:49.578Z,100376.03
2017-12-16T23:52:22.072Z,100379.00
2017-12-16T23:54:54.543Z,100375.97
2017-12-16T23:57:27.052Z,100390.64
2017-12-16T23:59:59.538Z,100389.00
